Tiempo atmosférico en la estación meteorológica de Pozuelo De Tabara, Zamora (711 m.)



Fecha
DESCASC
Temp. máxima en grados centígrados (hora)
DESCASC
Temp. mínima en grados centígrados (hora)
DESCASC
Temp. media en grados centígrados
DESCASC
Racha de viento máxima en m/sg (hora)
DESCASC
Velocidad máxima media en intervalos de 10 minutos(hora)
DESCASC
Precipitaciones diarias en mm
DESCASC
Precipitaciones de 00:00 a 06:00 en mm
DESCASC
Precipitaciones de 06:00 a 12:00 en mm
DESCASC
Precipitaciones de 12:00 a 18:00 en mm
DESCASC
Precipitaciones de 18:00 a 24:00 en mm
DESCASC
17-10-2019 18.5 (15:20) 12 (01:50) 15.3 11.94 (04:10) 8.33 (04:20) 6.4 2.8 0.4 0.2 3
16-10-2019 15.8 (16:10) 9.3 (09:00) 12.6 11.11 (13:10) 8.33 (13:10) 0 0 0 0 0
15-10-2019 13.2 (15:10) 5.8 (02:40) 9.5 11.94 (03:40) 8.89 (03:40) 0 0 0 0 0
14-10-2019 15.8 (00:00) 6.9 (23:40) 11.4 15.83 (16:30) 9.17 (16:30) 10.6 0 7.6 3 0
13-10-2019 21.7 (16:00) 12.6 (00:00) 17.2 13.61 (11:50) 9.72 (11:00) 0 0 0 0 0
12-10-2019 27.2 (16:00) 15.1 (00:00) 21.2 18.61 (16:30) 11.67 (15:40) 0 0 0 0 0
10-10-2019 22.7 (17:40) 7 (00:00) 14.9 7.22 (14:20) 4.17 (12:50) 0 0 0 0 0
09-10-2019 22 (17:10) 9.1 (00:00) 15.6 7.22 (13:10) 4.17 (13:10) 0 0 0 0 0
08-10-2019 28.3 (16:40) 9.5 (00:00) 18.9 10.28 (17:20) 7.78 (18:00) 0 0 0 0 0
07-10-2019 29.1 (17:40) 8.3 (00:00) 18.7 5.28 (19:20) 3.89 (19:20) 0 0 0 0 0
06-10-2019 25.8 (17:30) 6.1 (00:00) 15.9 8.06 (17:30) 4.72 (18:00) 0 0 0 0 0
05-10-2019 25 (17:50) 8.3 (07:30) 16.7 8.06 (20:30) 6.11 (20:40) 0 0 0 0 0
04-10-2019 25.2 (17:10) 9 (00:00) 17.1 8.33 (15:20) 5 (18:10) 0 0 0 0 0
03-10-2019 26.6 (18:20) 6.7 (00:00) 16.7 8.06 (21:40) 5.83 (19:30) 0 0 0 0 0
02-10-2019 22 (17:50) 5.7 (00:00) 13.8 7.78 (11:10) 5 (01:50) 0 0 0 0 0
01-10-2019 23.7 (16:10) 12.9 (00:00) 18.3 13.06 (15:30) 9.17 (17:40) 0 0 0 0 0
30-09-2019 28.1 (17:30) 10.1 (00:00) 19.1 9.17 (16:00) 5.83 (18:10) 0 0 0 0 0
29-09-2019 27.6 (16:20) 6 (00:00) 16.8 11.94 (15:30) 8.89 (17:50) 0 0 0 0 0
28-09-2019 26.9 (18:00) 5.9 (00:00) 16.4 7.78 (19:10) 4.72 (19:20) 0 0 0 0 0
27-09-2019 24.8 (15:40) 6.7 (00:00) 15.7 10.56 (18:30) 8.06 (18:20) 0 0 0 0 0
26-09-2019 26.4 (17:30) 8.8 (00:00) 17.6 8.33 (13:30) 6.11 (18:40) 0 0 0 0 0
25-09-2019 22.8 (17:20) 7.1 (00:00) 14.9 8.33 (13:20) 5 (19:20) 0 0 0 0 0
24-09-2019 23.2 (16:20) 12.2 (00:00) 17.7 15.56 (16:10) 10.83 (16:10) 0 0 0 0 0
23-09-2019 22.8 (17:50) 8.4 (00:00) 15.6 9.72 (17:20) 6.39 (17:40) 0 0 0 0 0
22-09-2019 20.2 (18:20) 11.3 (00:00) 15.8 11.11 (16:20) 7.78 (16:20) 0 0 0 0 0
21-09-2019 19.8 (16:50) 13.5 (00:00) 16.6 13.33 (23:40) 9.17 (17:30) 1.8 0 0.2 0.2 1.4
20-09-2019 27.1 (16:40) 13.8 (00:00) 20.5 12.5 (18:10) 9.17 (18:10) 0 0 0 0 0

Gráficas

Temp. máximas Temp. mínimas Temp. medias Precipitaciones Rachas de viento máximas Velocidades máximas media en intervalos de 10 minutos

Datos horarios

Fecha y hora oficial Temperatura (ºC) Velocidad del viento (km/h) Dirección del viento Racha (km/h) Dirección de racha Precipitación (mm) Presión (hPa) Tendencia (hPa) Humedad (%)
2019-10-19 23:00:00 9.5 12 Oeste 21 Oeste 0.2 -- -- 95
2019-10-19 22:00:00 9.6 5 Oeste 27 Noroeste 0.4 -- -- 95
2019-10-19 21:00:00 9.6 11 Noroeste 24 Noroeste 3.2 -- -- 94
2019-10-19 20:00:00 10.4 9 Noroeste 17 Oeste 0 -- -- 93
2019-10-19 19:00:00 12.3 3 Oeste 34 Sudoeste 1.2 -- -- 90
2019-10-19 18:00:00 13.1 27 Sudoeste 47 Sudoeste 0.2 -- -- 82
2019-10-19 17:00:00 14.3 37 Sudoeste 50 Sur 0 -- -- 75
2019-10-19 16:00:00 13.3 21 Sudoeste 35 Sudoeste 0.6 -- -- 84
2019-10-19 15:00:00 12.5 21 Sudoeste 38 Sudoeste 0.8 -- -- 85
2019-10-19 14:00:00 13 27 Sudoeste 48 Sudoeste 0 -- -- 80
2019-10-19 13:00:00 12.6 28 Sur 44 Sur 0 -- -- 83
2019-10-19 12:00:00 11.9 20 Sudoeste 35 Sudoeste 0 -- -- 89
2019-10-19 11:00:00 11 23 Sur 36 Sudoeste 0.2 -- -- 92
2019-10-19 10:00:00 10.9 21 Sur 31 Sur 0 -- -- 88
2019-10-19 09:00:00 10.6 17 Sudoeste 30 Sudoeste 0 -- -- 89
2019-10-19 08:00:00 10.6 25 Sudoeste 37 Sudoeste 0.2 -- -- 89
2019-10-19 07:00:00 10.7 22 Sudoeste 35 Sudoeste 0 -- -- 88
2019-10-19 06:00:00 10.6 27 Sudoeste 38 Sudoeste 0 -- -- 89
2019-10-19 05:00:00 10.6 23 Sudoeste 33 Sudoeste 0 -- -- 88
2019-10-19 04:00:00 11.1 19 Sudoeste 27 Sudoeste 0 -- -- 87
2019-10-19 03:00:00 11.3 10 Sudoeste 21 Sudoeste 0 -- -- 86
2019-10-19 02:00:00 11.3 9 Sudoeste 15 Sudoeste 0 -- -- 85
2019-10-19 01:00:00 11.4 8 Oeste 18 Sudoeste 0 -- -- 85
2019-10-19 00:00:00 11.5 11 Sudoeste 16 Sudoeste 0 -- -- 83
2019-10-18 23:00:00 11.8 9 Sudoeste 18 Sudoeste 0 -- -- 81
2019-10-18 22:00:00 12.3 8 Oeste 21 Oeste 0 -- -- 78
2019-10-18 21:00:00 12.7 9 Oeste 21 Oeste 0 -- -- 78
2019-10-18 20:00:00 13.1 16 Oeste 28 Sudoeste 0 -- -- 74
2019-10-18 19:00:00 14.2 19 Oeste 31 Oeste 0 -- -- 69
2019-10-18 18:00:00 14.9 24 Oeste 35 Oeste 0 -- -- 65
2019-10-18 17:00:00 15.3 20 Oeste 31 Sudoeste 0 -- -- 62
2019-10-18 16:00:00 15.2 18 Oeste 30 Oeste 0 -- -- 63
2019-10-18 15:00:00 15 22 Oeste 34 Oeste 0 -- -- 65
2019-10-18 14:00:00 14.4 24 Oeste 39 Oeste 0 -- -- 71
2019-10-18 13:00:00 13.4 24 Oeste 33 Oeste 0 -- -- 76
2019-10-18 12:00:00 12.5 17 Oeste 28 Oeste 0 -- -- 81
2019-10-18 11:00:00 11 11 Oeste 19 Oeste 0 -- -- 85
2019-10-18 10:00:00 10.6 4 Noroeste 10 Noroeste 0 -- -- 86
2019-10-18 09:00:00 10.6 8 Noroeste 29 Oeste 0 -- -- 88
2019-10-18 08:00:00 11.2 19 Oeste 25 Oeste 0 -- -- 86
2019-10-18 07:00:00 11.5 8 Oeste 20 Oeste 0 -- -- 88
2019-10-18 06:00:00 12 15 Oeste 29 Oeste 0 -- -- 88
2019-10-18 05:00:00 12.7 17 Oeste 28 Oeste 0 -- -- 87
2019-10-18 04:00:00 13.4 17 Oeste 28 Oeste 0 -- -- 89
2019-10-18 03:00:00 13.8 15 Oeste 22 Oeste 0 -- -- 92
2019-10-18 02:00:00 14.4 17 Oeste 27 Oeste 0 -- -- 90
2019-10-18 01:00:00 15 18 Oeste 24 Sudoeste 0 -- -- 91
2019-10-18 00:00:00 15.2 15 Sudoeste 31 Sudoeste 0.2 -- -- 93
2019-10-17 23:00:00 15 22 Sudoeste 30 Sudoeste 1.2 -- -- 93
2019-10-17 22:00:00 15.1 11 Sudoeste 21 Sudoeste 1.6 -- -- 94
2019-10-17 21:00:00 14.9 3 Sur 12 Sudoeste 0 -- -- 90
2019-10-17 20:00:00 15.4 11 Sudoeste 19 Sudoeste 0 -- -- 85
2019-10-17 19:00:00 16.1 15 Sudoeste 28 Sudoeste 0 -- -- 78
2019-10-17 18:00:00 17.1 22 Oeste 36 Oeste 0 -- -- 72
2019-10-17 17:00:00 16.1 26 Oeste 37 Oeste 0 -- -- 80
2019-10-17 16:00:00 18 23 Sudoeste 38 Sudoeste 0 -- -- 69
2019-10-17 15:00:00 17.4 19 Oeste 32 Oeste 0 -- -- 72
2019-10-17 14:00:00 17.4 21 Sudoeste 39 Sudoeste 0.2 -- -- 73
2019-10-17 13:00:00 16.8 27 Oeste 37 Sudoeste 0 -- -- 74
2019-10-17 12:00:00 15.3 24 Oeste 34 Oeste 0 -- -- 86
2019-10-17 11:00:00 14.3 16 Sudoeste 26 Sudoeste 0 -- -- 93
2019-10-17 10:00:00 13.4 15 Sudoeste 24 Sudoeste 0.2 -- -- 94
2019-10-17 09:00:00 12.8 20 Sudoeste 33 Sudoeste 0 -- -- 94
2019-10-17 08:00:00 12.7 22 Sudoeste 35 Sudoeste 0 -- -- 93
2019-10-17 07:00:00 12.4 21 Sudoeste 34 Sudoeste 0.2 -- -- 93
2019-10-17 06:00:00 12.1 21 Sudoeste 35 Sudoeste 0.2 -- -- 93
2019-10-17 05:00:00 12.1 22 Sudoeste 43 Sudoeste 0.2 -- -- 92
2019-10-17 04:00:00 12 26 Sudoeste 37 Sudoeste 0 -- -- 92
2019-10-17 03:00:00 12 18 Sudoeste 30 Sudoeste 1.6 -- -- 92
2019-10-17 02:00:00 12.1 19 Sudoeste 28 Sudoeste 0.6 -- -- 91
2019-10-17 01:00:00 12.5 20 Sudoeste 30 Sudoeste 0.2 -- -- 86
2019-10-17 00:00:00 12.5 23 Sudoeste 36 Sudoeste 0 -- -- 87
2019-10-16 23:00:00 12.4 24 Sudoeste 34 Sudoeste 0 -- -- 87
2019-10-16 22:00:00 13 20 Sudoeste 32 Sudoeste 0 -- -- 82
2019-10-16 21:00:00 12.8 11 Sudoeste 33 Oeste 0 -- -- 84
2019-10-16 20:00:00 15 19 Sudoeste 39 Sudoeste 0 -- -- 68
2019-10-16 19:00:00 15.3 19 Sudoeste 30 Sudoeste 0 -- -- 66
2019-10-16 18:00:00 15.3 21 Sudoeste 32 Sudoeste 0 -- -- 65
2019-10-16 17:00:00 15.6 19 Sudoeste 34 Oeste 0 -- -- 64
2019-10-16 16:00:00 15.6 22 Sudoeste 38 Sudoeste 0 -- -- 63
2019-10-16 15:00:00 15.2 24 Sudoeste 39 Sudoeste 0 -- -- 65
2019-10-16 14:00:00 14.7 23 Sudoeste 40 Sudoeste 0 -- -- 67
2019-10-16 13:00:00 13 26 Sudoeste 39 Sudoeste 0 -- -- 74
2019-10-16 12:00:00 12.2 24 Sudoeste 37 Sudoeste 0 -- -- 78
2019-10-16 11:00:00 10.8 21 Sudoeste 37 Sudoeste 0 -- -- 83
2019-10-16 10:00:00 9.9 17 Sudoeste 28 Sudoeste 0 -- -- 85
2019-10-16 09:00:00 9.3 17 Sudoeste 27 Sudoeste 0 -- -- 88
2019-10-16 08:00:00 9.5 17 Sudoeste 25 Sudoeste 0 -- -- 87
2019-10-16 07:00:00 9.7 22 Sudoeste 35 Sudoeste 0 -- -- 87
2019-10-16 06:00:00 9.9 18 Sudoeste 29 Sudoeste 0 -- -- 85
2019-10-16 05:00:00 10.1 13 Sudoeste 27 Sudoeste 0 -- -- 83
2019-10-16 04:00:00 10.1 14 Sudoeste 28 Sudoeste 0 -- -- 82
2019-10-16 03:00:00 10.2 11 Sudoeste 23 Sudoeste 0 -- -- 82
2019-10-16 02:00:00 10.4 9 Sudoeste 19 Sudoeste 0 -- -- 82
2019-10-16 01:00:00 10.5 13 Sudoeste 22 Sudoeste 0 -- -- 84
2019-10-16 00:00:00 10.6 13 Sudoeste 27 Sudoeste 0 -- -- 85
2019-10-15 23:00:00 10.8 23 Sudoeste 33 Sudoeste 0 -- -- 83
2019-10-15 22:00:00 10.9 14 Oeste 25 Oeste 0 -- -- 83
2019-10-15 21:00:00 11.9 16 Oeste 28 Sudoeste 0 -- -- 72
2019-10-15 20:00:00 12.6 16 Sudoeste 24 Sudoeste 0 -- -- 70
2019-10-15 19:00:00 13.1 18 Sudoeste 24 Sudoeste 0 -- -- 63
2019-10-15 18:00:00 12.8 15 Oeste 26 Sudoeste 0 -- -- 64
2019-10-15 17:00:00 12.8 17 Oeste 31 Oeste 0 -- -- 65
2019-10-15 16:00:00 12.6 19 Sudoeste 36 Oeste 0 -- -- 66
2019-10-15 15:00:00 13.1 19 Sudoeste 35 Sudoeste 0 -- -- 67
2019-10-15 14:00:00 12.1 24 Sudoeste 36 Sudoeste 0 -- -- 69
2019-10-15 13:00:00 12 21 Sudoeste 32 Sudoeste 0 -- -- 71
2019-10-15 12:00:00 10.7 17 Sudoeste 36 Sudoeste 0 -- -- 79
2019-10-15 11:00:00 9.3 19 Oeste 28 Oeste 0 -- -- 81
2019-10-15 10:00:00 8.1 15 Oeste 22 Sudoeste 0 -- -- 89
2019-10-15 09:00:00 6.5 17 Sudoeste 23 Sudoeste 0 -- -- 92
2019-10-15 08:00:00 6.3 13 Oeste 30 Oeste 0 -- -- 91
2019-10-15 07:00:00 6.2 15 Oeste 22 Sudoeste 0 -- -- 91
2019-10-15 06:00:00 6.2 16 Oeste 31 Oeste 0 -- -- 90
2019-10-15 05:00:00 6.2 24 Sudoeste 41 Oeste 0 -- -- 89
2019-10-15 04:00:00 6.3 30 Oeste 43 Oeste 0 -- -- 88
2019-10-15 03:00:00 6 24 Oeste 34 Oeste 0 -- -- 87
2019-10-15 02:00:00 6 12 Oeste 38 Oeste 0 -- -- 87
2019-10-15 01:00:00 6.5 23 Oeste 37 Oeste 0 -- -- 84
2019-10-15 00:00:00 7 19 Oeste 31 Oeste 0 -- -- 81
2019-10-14 23:00:00 7.2 21 Oeste 31 Oeste 0 -- -- 82
2019-10-14 22:00:00 7.7 24 Oeste 34 Oeste 0 -- -- 78
2019-10-14 21:00:00 7.6 14 Oeste 28 Oeste 0 -- -- 83
2019-10-14 20:00:00 8.9 17 Oeste 38 Oeste 0 -- -- 79
2019-10-14 19:00:00 10 26 Oeste 37 Oeste 0 -- -- 78
2019-10-14 18:00:00 10.8 26 Oeste 38 Oeste 0 -- -- 75
2019-10-14 17:00:00 9.7 21 Oeste 57 Oeste 1.2 -- -- 87
2019-10-14 16:00:00 11.6 24 Sudoeste 42 Sudoeste 0 -- -- 80
2019-10-14 15:00:00 11.8 24 Sudoeste 41 Sudoeste 1 -- -- 87
2019-10-14 14:00:00 11.6 23 Sudoeste 41 Sudoeste 0.6 -- -- 85
2019-10-14 13:00:00 11.9 25 Sudoeste 42 Sudoeste 0.2 -- -- 83
2019-10-14 12:00:00 12.1 21 Sudoeste 36 Sudoeste 0 -- -- 79
2019-10-14 11:00:00 11.2 27 Sudoeste 37 Sudoeste 0 -- -- 83
2019-10-14 10:00:00 9.9 14 Sudoeste 26 Oeste 0.4 -- -- 89
2019-10-14 09:00:00 9.8 21 Oeste 33 Oeste 3.4 -- -- 88
2019-10-14 08:00:00 11.2 26 Oeste 40 Oeste 3.8 -- -- 86
2019-10-14 07:00:00 14.5 14 Sudoeste 27 Sudoeste 0 -- -- 77
2019-10-14 06:00:00 14.3 12 Sudoeste 19 Oeste 0 -- -- 74
2019-10-14 05:00:00 13.8 10 Sudoeste 14 Sudoeste 0 -- -- 73
2019-10-14 04:00:00 12.8 8 Sudoeste 12 Sudeste 0 -- -- 75
2019-10-14 03:00:00 14.3 9 Sudeste 15 Sur 0 -- -- 70
2019-10-14 02:00:00 14.6 9 Sur 17 Sudoeste 0 -- -- 70
2019-10-14 01:00:00 15.6 13 Sudoeste 20 Sur 0 -- -- 67
2019-10-14 00:00:00 15.8 15 Sur 24 Sudoeste 0 -- -- 66
2019-10-13 23:00:00 15.5 10 Sur 16 Sur 0 -- -- 65
2019-10-13 22:00:00 16.6 8 Sudoeste 26 Sudoeste 0 -- -- 59
2019-10-13 21:00:00 17.4 18 Sudoeste 33 Sur 0 -- -- 55
2019-10-13 20:00:00 18.2 22 Sur 37 Sudoeste 0 -- -- 54
2019-10-13 19:00:00 19.9 25 Sudoeste 42 Sudoeste 0 -- -- 49
2019-10-13 18:00:00 21.2 26 Sur 46 Sur 0 -- -- 46
2019-10-13 17:00:00 21.2 27 Sudoeste 47 Sur 0 -- -- 48
2019-10-13 16:00:00 21.7 27 Sudoeste 40 Sudoeste 0 -- -- 50
2019-10-13 15:00:00 20 22 Sudoeste 35 Sudoeste 0 -- -- 55
2019-10-13 14:00:00 19.4 26 Sudoeste 36 Sudoeste 0 -- -- 56
2019-10-13 13:00:00 17.8 27 Sudoeste 39 Sudoeste 0 -- -- 61
2019-10-13 12:00:00 16.5 31 Sudoeste 49 Sudoeste 0 -- -- 67
2019-10-13 11:00:00 16.1 35 Sudoeste 46 Sudoeste 0 -- -- 68
2019-10-13 10:00:00 14.7 24 Sudoeste 34 Sudoeste 0 -- -- 75
2019-10-13 09:00:00 12.9 25 Sudoeste 37 Sudoeste 0 -- -- 81
2019-10-13 08:00:00 12.9 28 Sudoeste 36 Sudoeste 0 -- -- 81
2019-10-13 07:00:00 13.2 29 Sudoeste 41 Sudoeste 0 -- -- 79
2019-10-13 06:00:00 14.4 27 Sudoeste 37 Sudoeste 0 -- -- 79
2019-10-13 05:00:00 14.7 21 Sudoeste 35 Sudoeste 0 -- -- 80
2019-10-13 04:00:00 15.2 22 Sudoeste 32 Sudoeste 0 -- -- 76
2019-10-13 03:00:00 16.1 11 Sudoeste 19 Sudoeste 0 -- -- 77
2019-10-13 02:00:00 16.1 12 Oeste 18 Sudoeste 0 -- -- 77
2019-10-13 01:00:00 16.9 12 Sudoeste 21 Sudoeste 0 -- -- 73
2019-10-13 00:00:00 18.4 15 Sudoeste 27 Sudoeste 0 -- -- 67
2019-10-12 23:00:00 21.3 22 Sudoeste 41 Sudoeste 0 -- -- 52
2019-10-12 22:00:00 22.8 26 Sudoeste 40 Sudoeste 0 -- -- 41
2019-10-12 21:00:00 23.7 24 Sudoeste 45 Sudoeste 0 -- -- 38
2019-10-12 20:00:00 24.1 23 Sudoeste 51 Sudoeste 0 -- -- 37
2019-10-12 19:00:00 25.2 34 Sudoeste 60 Sudoeste 0 -- -- 35
2019-10-12 18:00:00 26.2 40 Sudoeste 59 Sudoeste 0 -- -- 32
2019-10-12 17:00:00 27.1 37 Sudoeste 67 Sudoeste 0 -- -- 30
2019-10-12 16:00:00 27.2 34 Sudoeste 54 Sudoeste 0 -- -- 30
2019-10-12 15:00:00 26.6 36 Sudoeste 53 Sudoeste 0 -- -- 34
2019-10-12 14:00:00 25.9 27 Sudoeste 46 Sur 0 -- -- 37
2019-10-12 13:00:00 23.3 27 Sudoeste 37 Sudoeste 0 -- -- 48
2019-10-12 12:00:00 22.3 20 Sudoeste 37 Sudoeste 0 -- -- 52
2019-10-12 11:00:00 19.3 13 Sudoeste 23 Oeste 0 -- -- 64
2019-10-12 10:00:00 17.1 5 Sudoeste 14 Oeste 0 -- -- 71
2019-10-12 09:00:00 15.9 9 Oeste 13 Oeste 0 -- -- 73
2019-10-12 08:00:00 15.4 6 Sudoeste 9 Sudoeste 0 -- -- 70
2019-10-12 07:00:00 16.5 7 Oeste 17 Sudoeste 0 -- -- 67
2019-10-12 06:00:00 16.9 14 Sudoeste 19 Sudoeste 0 -- -- 63
2019-10-12 05:00:00 17.8 15 Sudoeste 25 Sudoeste 0 -- -- 59
2019-10-12 04:00:00 18.9 16 Sudoeste 22 Sudoeste 0 -- -- 55
2019-10-12 03:00:00 19.1 15 Sudoeste 21 Sudoeste 0 -- -- 55
2019-10-12 02:00:00 19.2 14 Sudoeste 19 Sudoeste 0 -- -- 56
2019-10-12 01:00:00 19.6 14 Sudoeste 23 Sudoeste 0 -- -- 55
2019-10-12 00:00:00 20.1 13 Sudoeste 21 Sudoeste 0 -- -- 55
2019-10-11 23:00:00 21 15 Sudoeste 24 Sudoeste 0 -- -- 53
2019-10-11 22:00:00 21.6 14 Sudoeste 23 Sudoeste 0 -- -- 52
2019-10-11 21:00:00 22.9 18 Sudoeste 28 Sudoeste 0 -- -- 48
2019-10-11 20:00:00 23.9 9 Sudoeste 23 Sudoeste 0 -- -- 43
2019-10-11 19:00:00 26 17 Sudoeste 33 Sudoeste 0 -- -- 39
2019-10-11 18:00:00 26.9 23 Sudoeste 38 Sudoeste 0 -- -- 38
2019-10-11 17:00:00 27.6 15 Sudoeste 46 Oeste 0 -- -- 35
2019-10-11 16:00:00 26.9 22 Oeste 33 Oeste 0 -- -- 35
2019-10-11 15:00:00 26.2 14 Sudoeste 25 Sudoeste 0 -- -- 35
2019-10-11 14:00:00 24.3 11 Sur 21 Sur 0 -- -- 38
2019-10-11 13:00:00 19.9 6 Este 12 Este 0 -- -- 42
2019-10-11 12:00:00 17.4 3 Este 7 Este 0 -- -- 47
2019-10-11 11:00:00 14.9 0 Calma 2 Nordeste 0 -- -- 52
2019-10-11 10:00:00 11.8 0 Calma 7 Oeste 0 -- -- 62
2019-10-11 09:00:00 7.3 8 Oeste 9 Noroeste 0 -- -- 75
2019-10-11 08:00:00 6.9 3 Noroeste 6 Noroeste 0 -- -- 74
2019-10-11 07:00:00 7.1 2 Oeste 5 Oeste 0 -- -- 72
2019-10-11 06:00:00 7.5 4 Noroeste 8 Oeste 0 -- -- 72
2019-10-11 05:00:00 8 0 Calma 8 Noroeste 0 -- -- 67
2019-10-11 04:00:00 8.5 4 Noroeste 8 Oeste 0 -- -- 67
2019-10-11 03:00:00 9.1 4 Noroeste 10 Oeste 0 -- -- 64
2019-10-11 02:00:00 10.2 4 Oeste 9 Oeste 0 -- -- 61
2019-10-11 01:00:00 10.6 5 Oeste 10 Oeste 0 -- -- 60
2019-10-11 00:00:00 11.2 7 Noroeste 15 Oeste 0 -- -- 58
2019-10-10 23:00:00 11.8 9 Noroeste 14 Oeste 0 -- -- 57
2019-10-10 22:00:00 12.9 8 Noroeste 15 Oeste 0 -- -- 52
2019-10-10 21:00:00 14.1 13 Noroeste 15 Oeste 0 -- -- 49
2019-10-10 20:00:00 17.8 3 Oeste 7 Nordeste 0 -- -- 40
2019-10-10 19:00:00 22.3 3 Nordeste 13 Nordeste 0 -- -- 32
2019-10-10 18:00:00 22.6 8 Este 15 Este 0 -- -- 33
2019-10-10 17:00:00 22.2 7 Nordeste 17 Este 0 -- -- 35
2019-10-10 16:00:00 21.3 9 Este 23 Nordeste 0 -- -- 38
2019-10-10 15:00:00 20.3 11 Nordeste 26 Nordeste 0 -- -- 41
2019-10-10 14:00:00 18.9 13 Nordeste 25 Nordeste 0 -- -- 47
2019-10-10 13:00:00 17.2 15 Nordeste 25 Nordeste 0 -- -- 53
2019-10-10 12:00:00 14.3 11 Nordeste 21 Este 0 -- -- 62
2019-10-10 11:00:00 12.3 13 Nordeste 20 Nordeste 0 -- -- 67
2019-10-10 10:00:00 10.7 10 Nordeste 17 Nordeste 0 -- -- 75
2019-10-10 09:00:00 7.5 4 Noroeste 13 Noroeste 0 -- -- 87
2019-10-10 08:00:00 7.6 6 Norte 13 Norte 0 -- -- 87
2019-10-10 07:00:00 7 8 Noroeste 12 Norte 0 -- -- 87
2019-10-10 06:00:00 8.3 7 Norte 10 Norte 0 -- -- 86
2019-10-10 05:00:00 9 5 Norte 12 Norte 0 -- -- 82
2019-10-10 04:00:00 8.8 5 Norte 12 Norte 0 -- -- 81
2019-10-10 03:00:00 9.4 3 Norte 12 Norte 0 -- -- 78
2019-10-10 02:00:00 9.7 3 Norte 6 Norte 0 -- -- 73
2019-10-10 01:00:00 11.2 5 Nordeste 15 Nordeste 0 -- -- 67
2019-10-10 00:00:00 12.1 5 Este 14 Este 0 -- -- 65
2019-10-09 23:00:00 11.8 6 Noroeste 13 Oeste 0 -- -- 49
2019-10-09 22:00:00 11.7 8 Noroeste 13 Noroeste 0 -- -- 50
2019-10-09 21:00:00 13.3 3 Noroeste 6 Noroeste 0 -- -- 44
2019-10-09 20:00:00 18.3 4 Este 14 Nordeste 0 -- -- 35
2019-10-09 19:00:00 21.1 10 Este 17 Nordeste 0 -- -- 30
2019-10-09 18:00:00 21.6 9 Nordeste 19 Este 0 -- -- 28
2019-10-09 17:00:00 21.7 5 Sur 15 Nordeste 0 -- -- 27
2019-10-09 16:00:00 21 8 Nordeste 21 Nordeste 0 -- -- 28
2019-10-09 15:00:00 20 10 Nordeste 24 Nordeste 0 -- -- 31
2019-10-09 14:00:00 18.8 13 Norte 26 Nordeste 0 -- -- 36
2019-10-09 13:00:00 17.6 15 Nordeste 24 Nordeste 0 -- -- 41
2019-10-09 12:00:00 16.4 14 Nordeste 22 Nordeste 0 -- -- 43
2019-10-09 11:00:00 14.5 11 Norte 19 Norte 0 -- -- 49
2019-10-09 10:00:00 11.8 10 Noroeste 15 Noroeste 0 -- -- 66
2019-10-09 09:00:00 9.1 6 Noroeste 9 Noroeste 0 -- -- 85
2019-10-09 08:00:00 11.3 0 Calma 5 Nordeste 0 -- -- 85
2019-10-09 07:00:00 11.6 2 Nordeste 14 Sudeste 0 -- -- 90
2019-10-09 06:00:00 12.1 4 Sudeste 9 Norte 0 -- -- 91
2019-10-09 05:00:00 10.9 2 Oeste 13 Nordeste 0 -- -- 90
2019-10-09 04:00:00 11.9 3 Oeste 14 Noroeste 0 -- -- 88
2019-10-09 03:00:00 12.9 0 Calma 7 Sudoeste 0 -- -- 85
2019-10-09 02:00:00 13.9 0 Calma 9 Sudoeste 0 -- -- 81
2019-10-09 01:00:00 15.3 4 Noroeste 12 Oeste 0 -- -- 77
2019-10-09 00:00:00 16.7 10 Oeste 12 Oeste 0 -- -- 73
2019-10-08 23:00:00 18 10 Oeste 14 Oeste 0 -- -- 68
2019-10-08 22:00:00 20.3 7 Oeste 20 Noroeste 0 -- -- 60
2019-10-08 21:00:00 21.7 14 Noroeste 20 Noroeste 0 -- -- 56
2019-10-08 20:00:00 23.2 16 Oeste 28 Oeste 0 -- -- 49
2019-10-08 19:00:00 25.7 22 Oeste 34 Oeste 0 -- -- 44
2019-10-08 18:00:00 27.3 28 Oeste 37 Oeste 0 -- -- 40
2019-10-08 17:00:00 28.2 23 Oeste 34 Oeste 0 -- -- 39
2019-10-08 16:00:00 28.1 22 Oeste 34 Oeste 0 -- -- 38
2019-10-08 15:00:00 27.9 23 Oeste 32 Oeste 0 -- -- 37
2019-10-08 14:00:00 26.5 15 Oeste 24 Oeste 0 -- -- 38
2019-10-08 13:00:00 24.7 9 Sudoeste 15 Sudoeste 0 -- -- 41
2019-10-08 12:00:00 21.6 5 Este 9 Este 0 -- -- 43
2019-10-08 11:00:00 18.6 4 Este 7 Sudeste 0 -- -- 49
2019-10-08 10:00:00 15.2 0 Calma 5 Este 0 -- -- 59
2019-10-08 09:00:00 10.6 0 Calma 6 Oeste 0 -- -- 73
2019-10-08 08:00:00 9.5 2 Oeste 5 Norte 0 -- -- 74
2019-10-08 07:00:00 10.2 0 Calma 10 Noroeste 0 -- -- 71
2019-10-08 06:00:00 10.8 7 Oeste 9 Oeste 0 -- -- 70
2019-10-08 05:00:00 10.9 8 Oeste 10 Noroeste 0 -- -- 69
2019-10-08 04:00:00 10.6 3 Noroeste 6 Noroeste 0 -- -- 68
2019-10-08 03:00:00 11.6 0 Calma 4 Este 0 -- -- 63
2019-10-08 02:00:00 12.7 2 Sur 6 Norte 0 -- -- 58
2019-10-08 01:00:00 13.2 0 Calma 3 Sudeste 0 -- -- 58
2019-10-08 00:00:00 15.6 0 Calma 8 Oeste 0 -- -- 51
2019-10-07 23:00:00 19.3 6 Oeste 10 Sudoeste 0 -- -- 42
2019-10-07 22:00:00 20.6 3 Oeste 13 Sur 0 -- -- 40
2019-10-07 21:00:00 21 13 Sur 14 Sur 0 -- -- 39
2019-10-07 20:00:00 23.5 10 Sur 19 Sudeste 0 -- -- 34
2019-10-07 19:00:00 27.8 12 Sur 17 Sudoeste 0 -- -- 28
2019-10-07 18:00:00 28.9 11 Sur 18 Noroeste 0 -- -- 27
2019-10-07 17:00:00 28.8 3 Oeste 17 Nordeste 0 -- -- 27
2019-10-07 16:00:00 27.3 6 Este 15 Sudeste 0 -- -- 29
2019-10-07 15:00:00 25.7 5 Sur 17 Sudoeste 0 -- -- 33
2019-10-07 14:00:00 22.8 6 Este 14 Este 0 -- -- 41
2019-10-07 13:00:00 20.1 6 Este 13 Sudeste 0 -- -- 48
2019-10-07 12:00:00 17.5 0 Calma 9 Nordeste 0 -- -- 62
2019-10-07 11:00:00 14.7 4 Este 10 Este 0 -- -- 72
2019-10-07 10:00:00 11.7 5 Noroeste 8 Noroeste 0 -- -- 82
2019-10-07 09:00:00 9.4 6 Oeste 12 Noroeste 0 -- -- 87
2019-10-07 08:00:00 8.3 9 Oeste 10 Noroeste 0 -- -- 85
2019-10-07 07:00:00 8.6 9 Noroeste 10 Oeste 0 -- -- 82
2019-10-07 06:00:00 8.8 3 Noroeste 8 Oeste 0 -- -- 77
2019-10-07 05:00:00 9.3 5 Oeste 9 Oeste 0 -- -- 69
2019-10-07 04:00:00 10.1 0 Calma 9 Este 0 -- -- 65
2019-10-07 03:00:00 11 0 Calma 6 Oeste 0 -- -- 59
2019-10-07 02:00:00 10.7 3 Oeste 6 Este 0 -- -- 56
2019-10-07 01:00:00 11.8 0 Calma 6 Noroeste 0 -- -- 53
2019-10-07 00:00:00 14.8 0 Calma 15 Oeste 0 -- -- 47
2019-10-06 23:00:00 15.5 12 Noroeste 14 Noroeste 0 -- -- 51
2019-10-06 22:00:00 18.8 10 Noroeste 22 Oeste 0 -- -- 53
2019-10-06 21:00:00 20.4 13 Oeste 22 Oeste 0 -- -- 48
2019-10-06 20:00:00 21.9 13 Oeste 21 Oeste 0 -- -- 40
2019-10-06 19:00:00 24.7 16 Oeste 23 Oeste 0 -- -- 34
2019-10-06 18:00:00 25.6 17 Oeste 29 Oeste 0 -- -- 30
2019-10-06 17:00:00 25.6 13 Oeste 28 Oeste 0 -- -- 30
2019-10-06 16:00:00 25.1 10 Sudoeste 23 Oeste 0 -- -- 36
2019-10-06 15:00:00 23.1 7 Sur 21 Sudeste 0 -- -- 43
2019-10-06 14:00:00 20.7 5 Este 13 Sudeste 0 -- -- 51
2019-10-06 13:00:00 18.8 5 Este 12 Este 0 -- -- 59
2019-10-06 12:00:00 16.5 6 Este 14 Este 0 -- -- 66
2019-10-06 11:00:00 14.2 5 Nordeste 10 Nordeste 0 -- -- 75
2019-10-06 10:00:00 11.9 3 Norte 8 Oeste 0 -- -- 80
2019-10-06 09:00:00 7.1 5 Noroeste 7 Oeste 0 -- -- 92
2019-10-06 08:00:00 6.3 0 Calma 8 Oeste 0 -- -- 89
2019-10-06 07:00:00 6.6 4 Noroeste 7 Oeste 0 -- -- 89
2019-10-06 06:00:00 7.1 0 Calma 5 Oeste 0 -- -- 86
2019-10-06 05:00:00 8.5 0 Calma 5 Noroeste 0 -- -- 87
2019-10-06 04:00:00 9 4 Noroeste 5 Oeste 0 -- -- 83
2019-10-06 03:00:00 10.3 3 Oeste 8 Noroeste 0 -- -- 80
2019-10-06 02:00:00 11.3 0 Calma 6 Oeste 0 -- -- 75
2019-10-06 01:00:00 13.7 4 Noroeste 17 Noroeste 0 -- -- 71
2019-10-06 00:00:00 15.9 6 Noroeste 18 Oeste 0 -- -- 65
2019-10-05 23:00:00 17.4 15 Oeste 22 Oeste 0 -- -- 60
2019-10-05 22:00:00 17.9 15 Oeste 27 Sudoeste 0 -- -- 53
2019-10-05 21:00:00 18.6 21 Sudoeste 29 Oeste 0 -- -- 49
2019-10-05 20:00:00 20.1 13 Sudoeste 22 Oeste 0 -- -- 52
2019-10-05 19:00:00 23.3 17 Sudoeste 22 Sudoeste 0 -- -- 40
2019-10-05 18:00:00 24.8 16 Oeste 25 Sudoeste 0 -- -- 34
2019-10-05 17:00:00 24.7 16 Oeste 27 Sudoeste 0 -- -- 40
2019-10-05 16:00:00 24.3 14 Oeste 26 Sudoeste 0 -- -- 43
2019-10-05 15:00:00 23 12 Oeste 24 Sudoeste 0 -- -- 49
2019-10-05 14:00:00 20.2 5 Sudeste 13 Este 0 -- -- 60
2019-10-05 13:00:00 17 3 Noroeste 12 Norte 0 -- -- 71
2019-10-05 12:00:00 14.4 6 Norte 19 Norte 0 -- -- 81
2019-10-05 11:00:00 12.7 6 Norte 14 Noroeste 0 -- -- 88
2019-10-05 10:00:00 12.1 6 Norte 12 Noroeste 0 -- -- 92
2019-10-05 09:00:00 10.8 8 Noroeste 13 Noroeste 0 -- -- 95
2019-10-05 08:00:00 8.4 12 Oeste 14 Oeste 0 -- -- 93
2019-10-05 07:00:00 8.7 9 Noroeste 11 Oeste 0 -- -- 92
2019-10-05 06:00:00 8.7 9 Oeste 10 Noroeste 0 -- -- 89
2019-10-05 05:00:00 9.4 2 Noroeste 12 Oeste 0 -- -- 89
2019-10-05 04:00:00 9.5 4 Noroeste 8 Oeste 0 -- -- 87
2019-10-05 03:00:00 10.6 3 Sudoeste 4 Sudoeste 0 -- -- 83
2019-10-05 02:00:00 11.4 3 Oeste 5 Oeste 0 -- -- 81
2019-10-05 01:00:00 12.9 0 Calma 9 Oeste 0 -- -- 77
2019-10-05 00:00:00 15.1 2 Oeste 17 Noroeste 0 -- -- 69
2019-10-04 23:00:00 17.2 10 Noroeste 16 Noroeste 0 -- -- 65
2019-10-04 22:00:00 17.9 11 Sudoeste 16 Sudoeste 0 -- -- 59
2019-10-04 21:00:00 18.6 10 Sudoeste 15 Oeste 0 -- -- 56
2019-10-04 20:00:00 21.4 12 Sudoeste 22 Sudoeste 0 -- -- 48
2019-10-04 19:00:00 23.9 15 Oeste 26 Oeste 0 -- -- 42
2019-10-04 18:00:00 24.8 17 Oeste 29 Sudoeste 0 -- -- 41
2019-10-04 17:00:00 25.1 14 Sudoeste 27 Sudoeste 0 -- -- 43
2019-10-04 16:00:00 24.7 12 Sudoeste 30 Sudoeste 0 -- -- 44
2019-10-04 15:00:00 23.5 13 Sudoeste 24 Oeste 0 -- -- 49
2019-10-04 14:00:00 21.6 9 Oeste 23 Oeste 0 -- -- 54
2019-10-04 13:00:00 19.8 9 Este 21 Este 0 -- -- 65
2019-10-04 12:00:00 18.9 4 Oeste 14 Sudoeste 0 -- -- 70
2019-10-04 11:00:00 17 6 Sudoeste 14 Sudoeste 0 -- -- 77
2019-10-04 10:00:00 14.7 2 Nordeste 4 Este 0 -- -- 83
2019-10-04 09:00:00 10.1 0 Calma 9 Oeste 0 -- -- 93
2019-10-04 08:00:00 9.3 0 Calma 4 Oeste 0 -- -- 92
2019-10-04 07:00:00 9.2 5 Oeste 7 Oeste 0 -- -- 90
2019-10-04 06:00:00 9.5 2 Norte 4 Norte 0 -- -- 89
2019-10-04 05:00:00 9.7 0 Calma 3 Sudeste 0 -- -- 84
2019-10-04 04:00:00 10.4 0 Calma 6 Sur 0 -- -- 86
2019-10-04 03:00:00 10.9 2 Sudeste 5 Sur 0 -- -- 82
2019-10-04 02:00:00 11.7 6 Oeste 9 Oeste 0 -- -- 81
2019-10-04 01:00:00 12.2 3 Oeste 5 Sudeste 0 -- -- 77
2019-10-04 00:00:00 14 5 Noroeste 9 Oeste 0 -- -- 74
2019-10-03 23:00:00 17.1 5 Oeste 20 Noroeste 0 -- -- 67
2019-10-03 22:00:00 18.8 11 Noroeste 29 Oeste 0 -- -- 63
2019-10-03 21:00:00 20.3 17 Oeste 28 Oeste 0 -- -- 54
2019-10-03 20:00:00 22.9 18 Sudoeste 27 Sudoeste 0 -- -- 36
2019-10-03 19:00:00 25.9 16 Sudoeste 27 Sudoeste 0 -- -- 28
2019-10-03 18:00:00 26.5 12 Oeste 24 Oeste 0 -- -- 28
2019-10-03 17:00:00 26.3 12 Oeste 23 Oeste 0 -- -- 29
2019-10-03 16:00:00 25.6 13 Oeste 22 Oeste 0 -- -- 28
2019-10-03 15:00:00 24.2 12 Sudoeste 24 Oeste 0 -- -- 33
2019-10-03 14:00:00 22.2 9 Oeste 25 Oeste 0 -- -- 40
2019-10-03 13:00:00 19.9 9 Oeste 19 Sudeste 0 -- -- 47
2019-10-03 12:00:00 16.5 0 Calma 0 Calma 0 -- -- 60
2019-10-03 11:00:00 14.1 0 Calma 0 Calma 0 -- -- 69
2019-10-03 10:00:00 11.2 0 Calma 0 Calma 0 -- -- 79
2019-10-03 09:00:00 6.9 0 Calma 0 Calma 0 -- -- 87
2019-10-03 08:00:00 7.1 0 Calma 0 Calma 0 -- -- 86
2019-10-03 07:00:00 7.5 0 Calma 0 Calma 0 -- -- 83
2019-10-03 06:00:00 7.7 0 Calma 0 Calma 0 -- -- 81
2019-10-03 05:00:00 8 0 Calma 0 Calma 0 -- -- 79
2019-10-03 04:00:00 8.6 0 Calma 6 Noroeste 0 -- -- 75
2019-10-03 03:00:00 9.3 2 Norte 8 Noroeste 0 -- -- 73
2019-10-03 02:00:00 10.7 4 Noroeste 18 Nordeste 0 -- -- 66
2019-10-03 01:00:00 10.5 4 Oeste 8 Oeste 0 -- -- 64
2019-10-03 00:00:00 10.7 5 Noroeste 10 Oeste 0 -- -- 63
2019-10-02 23:00:00 11.5 6 Noroeste 10 Oeste 0 -- -- 60
2019-10-02 22:00:00 12.7 6 Noroeste 10 Noroeste 0 -- -- 57
2019-10-02 21:00:00 15.7 2 Sur 6 Sudeste 0 -- -- 47
2019-10-02 20:00:00 19.3 4 Sudeste 12 Este 0 -- -- 41
2019-10-02 19:00:00 21.5 6 Sudeste 12 Este 0 -- -- 36
2019-10-02 18:00:00 21.7 10 Este 16 Sudeste 0 -- -- 36
2019-10-02 17:00:00 21.8 8 Sudeste 17 Este 0 -- -- 36
2019-10-02 16:00:00 21.2 7 Este 21 Este 0 -- -- 37
2019-10-02 15:00:00 20.6 13 Nordeste 22 Este 0 -- -- 38
2019-10-02 14:00:00 19.7 12 Norte 25 Norte 0 -- -- 40
2019-10-02 13:00:00 18.4 10 Nordeste 24 Nordeste 0 -- -- 44
2019-10-02 12:00:00 17.1 12 Nordeste 28 Norte 0 -- -- 48
2019-10-02 11:00:00 14.8 17 Norte 24 Norte 0 -- -- 55
2019-10-02 10:00:00 12.6 13 Noroeste 17 Noroeste 0 -- -- 63
2019-10-02 09:00:00 8.4 8 Oeste 14 Oeste 0 -- -- 81
2019-10-02 08:00:00 5.7 5 Noroeste 13 Noroeste 0 -- -- 87
2019-10-02 07:00:00 6.9 8 Oeste 12 Oeste 0 -- -- 86
2019-10-02 06:00:00 8.3 9 Noroeste 20 Oeste 0 -- -- 84
2019-10-02 05:00:00 9.6 10 Noroeste 18 Oeste 0 -- -- 82
2019-10-02 04:00:00 10.3 9 Noroeste 18 Noroeste 0 -- -- 80
2019-10-02 03:00:00 10.9 16 Oeste 24 Oeste 0 -- -- 80
2019-10-02 02:00:00 11.9 17 Oeste 25 Oeste 0 -- -- 76
2019-10-02 01:00:00 12.9 17 Oeste 23 Oeste 0 -- -- 72
2019-10-02 00:00:00 13.6 14 Oeste 23 Oeste 0 -- -- 68
2019-10-01 23:00:00 15.1 11 Noroeste 28 Oeste 0 -- -- 62
2019-10-01 22:00:00 16.8 20 Oeste 30 Oeste 0 -- -- 57
2019-10-01 21:00:00 18.2 21 Noroeste 35 Oeste 0 -- -- 53
2019-10-01 20:00:00 19.8 26 Oeste 42 Oeste 0 -- -- 43
2019-10-01 19:00:00 21.7 28 Oeste 44 Oeste 0 -- -- 41
2019-10-01 18:00:00 22.8 32 Oeste 45 Oeste 0 -- -- 39
2019-10-01 17:00:00 23.6 28 Oeste 41 Oeste 0 -- -- 36
2019-10-01 16:00:00 23.6 26 Oeste 47 Oeste 0 -- -- 39
2019-10-01 15:00:00 22.9 29 Oeste 42 Oeste 0 -- -- 43
2019-10-01 14:00:00 21.7 24 Oeste 39 Oeste 0 -- -- 50
2019-10-01 13:00:00 21.1 23 Oeste 40 Oeste 0 -- -- 56
2019-10-01 12:00:00 19.2 29 Oeste 45 Oeste 0 -- -- 62
2019-10-01 11:00:00 16.8 26 Oeste 39 Oeste 0 -- -- 70
2019-10-01 10:00:00 15.3 14 Oeste 22 Oeste 0 -- -- 77
2019-10-01 09:00:00 13 11 Oeste 24 Oeste 0 -- -- 86
2019-10-01 08:00:00 13.2 22 Oeste 35 Sudoeste 0 -- -- 87
2019-10-01 07:00:00 14.1 18 Oeste 30 Oeste 0 -- -- 87
2019-10-01 06:00:00 15.1 19 Noroeste 26 Oeste 0 -- -- 85
2019-10-01 05:00:00 16.3 17 Noroeste 30 Oeste 0 -- -- 79
2019-10-01 04:00:00 17 7 Oeste 21 Noroeste 0 -- -- 72
2019-10-01 03:00:00 17.4 9 Noroeste 15 Noroeste 0 -- -- 69
2019-10-01 02:00:00 16 9 Noroeste 17 Oeste 0 -- -- 72
2019-10-01 01:00:00 17.9 14 Oeste 17 Oeste 0 -- -- 63
2019-10-01 00:00:00 18.1 10 Noroeste 17 Oeste 0 -- -- 62
2019-09-30 23:00:00 18.2 13 Oeste 15 Oeste 0 -- -- 63
2019-09-30 22:00:00 18.4 12 Noroeste 15 Noroeste 0 -- -- 55
2019-09-30 21:00:00 20.7 10 Oeste 18 Oeste 0 -- -- 46
2019-09-30 20:00:00 24.5 13 Sudoeste 28 Oeste 0 -- -- 40
2019-09-30 19:00:00 27 19 Sudoeste 30 Oeste 0 -- -- 34
2019-09-30 18:00:00 27.7 17 Sudoeste 31 Sudoeste 0 -- -- 36
2019-09-30 17:00:00 27.7 16 Oeste 31 Sudoeste 0 -- -- 39
2019-09-30 16:00:00 27.3 19 Sudoeste 33 Sudoeste 0 -- -- 41
2019-09-30 15:00:00 26.1 12 Oeste 31 Sudoeste 0 -- -- 46
2019-09-30 14:00:00 25.2 12 Sudoeste 22 Sur 0 -- -- 50
2019-09-30 13:00:00 23.8 8 Sur 14 Sur 0 -- -- 53
2019-09-30 12:00:00 21.6 6 Sudoeste 12 Sudoeste 0 -- -- 63
2019-09-30 11:00:00 18.4 2 Este 5 Este 0 -- -- 71
2019-09-30 10:00:00 14.5 0 Calma 7 Este 0 -- -- 82
2019-09-30 09:00:00 11.3 0 Calma 4 Norte 0 -- -- 93
2019-09-30 08:00:00 10.2 0 Calma 3 Norte 0 -- -- 91
2019-09-30 07:00:00 10.5 0 Calma 4 Este 0 -- -- 89
2019-09-30 06:00:00 11.4 0 Calma 3 Sudeste 0 -- -- 89
2019-09-30 05:00:00 12.1 3 Sur 10 Oeste 0 -- -- 87
2019-09-30 04:00:00 13.1 6 Oeste 8 Oeste 0 -- -- 89
2019-09-30 03:00:00 13.1 5 Oeste 7 Oeste 0 -- -- 84
2019-09-30 02:00:00 14.4 0 Calma 8 Oeste 0 -- -- 80
2019-09-30 01:00:00 15.6 3 Sur 8 Noroeste 0 -- -- 75
2019-09-30 00:00:00 18.1 2 Norte 20 Oeste 0 -- -- 68
2019-09-29 23:00:00 19.5 15 Oeste 31 Oeste 0 -- -- 65
2019-09-29 22:00:00 20.5 20 Oeste 35 Sudoeste 0 -- -- 59
2019-09-29 21:00:00 22 27 Oeste 39 Oeste 0 -- -- 51
2019-09-29 20:00:00 23.4 28 Oeste 40 Oeste 0 -- -- 45
2019-09-29 19:00:00 25.3 29 Oeste 41 Oeste 0 -- -- 41
2019-09-29 18:00:00 26.6 30 Oeste 41 Sudoeste 0 -- -- 35
2019-09-29 17:00:00 27.6 26 Oeste 42 Sudoeste 0 -- -- 29
2019-09-29 16:00:00 27.4 29 Oeste 43 Oeste 0 -- -- 29
2019-09-29 15:00:00 26.8 27 Oeste 39 Oeste 0 -- -- 28
2019-09-29 14:00:00 26 28 Oeste 40 Oeste 0 -- -- 30
2019-09-29 13:00:00 24.4 22 Oeste 35 Oeste 0 -- -- 32
2019-09-29 12:00:00 22.5 18 Oeste 28 Oeste 0 -- -- 30
2019-09-29 11:00:00 17.4 4 Nordeste 8 Nordeste 0 -- -- 43
2019-09-29 10:00:00 10.8 5 Este 9 Este 0 -- -- 65
2019-09-29 09:00:00 7.3 2 Nordeste 10 Sudoeste 0 -- -- 74
2019-09-29 08:00:00 6 3 Sudoeste 8 Sudoeste 0 -- -- 76
2019-09-29 07:00:00 7.1 2 Noroeste 11 Noroeste 0 -- -- 74
2019-09-29 06:00:00 7.6 3 Este 7 Oeste 0 -- -- 72
2019-09-29 05:00:00 9 0 Calma 5 Sudeste 0 -- -- 66
2019-09-29 04:00:00 9.6 6 Norte 10 Nordeste 0 -- -- 65
2019-09-29 03:00:00 10.5 0 Calma 7 Nordeste 0 -- -- 60
2019-09-29 02:00:00 11.9 4 Oeste 10 Oeste 0 -- -- 56
2019-09-29 01:00:00 13.6 6 Oeste 14 Noroeste 0 -- -- 50
2019-09-29 00:00:00 14.4 11 Oeste 15 Oeste 0 -- -- 48
2019-09-28 23:00:00 13.7 8 Oeste 13 Oeste 0 -- -- 43
2019-09-28 22:00:00 16.8 8 Oeste 13 Sudoeste 0 -- -- 33
2019-09-28 21:00:00 18.6 13 Sudoeste 17 Oeste 0 -- -- 27
2019-09-28 20:00:00 23 12 Oeste 28 Oeste 0 -- -- 20
2019-09-28 19:00:00 26.7 13 Oeste 26 Sudoeste 0 -- -- 24
2019-09-28 18:00:00 26.9 13 Sudoeste 27 Sudoeste 0 -- -- 25
2019-09-28 17:00:00 25.7 12 Sur 24 Sur 0 -- -- 30
2019-09-28 16:00:00 24.2 10 Sur 23 Sudeste 0 -- -- 33
2019-09-28 15:00:00 21.6 8 Este 17 Este 0 -- -- 45
2019-09-28 14:00:00 19.7 6 Este 16 Este 0 -- -- 51
2019-09-28 13:00:00 17.9 6 Nordeste 18 Este 0 -- -- 58
2019-09-28 12:00:00 16.7 7 Este 14 Este 0 -- -- 61
2019-09-28 11:00:00 14.4 4 Nordeste 12 Noroeste 0 -- -- 70
2019-09-28 10:00:00 11.6 8 Noroeste 12 Noroeste 0 -- -- 82
2019-09-28 09:00:00 7.7 9 Noroeste 10 Noroeste 0 -- -- 95
2019-09-28 08:00:00 6.1 0 Calma 8 Noroeste 0 -- -- 91
2019-09-28 07:00:00 6.9 4 Oeste 8 Noroeste 0 -- -- 93
2019-09-28 06:00:00 6.8 5 Oeste 7 Oeste 0 -- -- 91
2019-09-28 05:00:00 7.1 3 Oeste 5 Oeste 0 -- -- 91
2019-09-28 04:00:00 7.3 0 Calma 4 Sudeste 0 -- -- 88
2019-09-28 03:00:00 8.4 2 Sudeste 8 Norte 0 -- -- 85
2019-09-28 02:00:00 9.7 0 Calma 5 Oeste 0 -- -- 83
2019-09-28 01:00:00 11 0 Calma 9 Oeste 0 -- -- 80
2019-09-28 00:00:00 11.6 6 Oeste 8 Oeste 0 -- -- 77
2019-09-27 23:00:00 14.5 2 Sur 13 Oeste 0 -- -- 67
2019-09-27 22:00:00 16.8 6 Noroeste 22 Noroeste 0 -- -- 62
2019-09-27 21:00:00 18.4 17 Oeste 32 Oeste 0 -- -- 59
2019-09-27 20:00:00 20.4 21 Oeste 36 Oeste 0 -- -- 54
2019-09-27 19:00:00 22.2 25 Oeste 38 Oeste 0 -- -- 51
2019-09-27 18:00:00 23.4 26 Oeste 36 Oeste 0 -- -- 48
2019-09-27 17:00:00 24.2 25 Oeste 36 Oeste 0 -- -- 46
2019-09-27 16:00:00 24.7 14 Oeste 32 Sudoeste 0 -- -- 44
2019-09-27 15:00:00 23.9 18 Oeste 31 Oeste 0 -- -- 44
2019-09-27 14:00:00 22.5 9 Oeste 23 Oeste 0 -- -- 45
2019-09-27 13:00:00 21.5 4 Sudoeste 17 Sudoeste 0 -- -- 42
2019-09-27 12:00:00 20 5 Sur 12 Sur 0 -- -- 45
2019-09-27 11:00:00 16.4 2 Este 8 Este 0 -- -- 58
2019-09-27 10:00:00 12.1 3 Sudoeste 9 Norte 0 -- -- 75
2019-09-27 09:00:00 8 3 Noroeste 9 Oeste 0 -- -- 87
2019-09-27 08:00:00 6.9 6 Sudoeste 13 Norte 0 -- -- 87
2019-09-27 07:00:00 7 4 Sudeste 8 Oeste 0 -- -- 84
2019-09-27 06:00:00 7.2 3 Norte 7 Sudeste 0 -- -- 82
2019-09-27 05:00:00 8.9 2 Sudeste 8 Este 0 -- -- 76
2019-09-27 04:00:00 10.6 4 Norte 10 Noroeste 0 -- -- 71
2019-09-27 03:00:00 12 4 Este 12 Sudeste 0 -- -- 67
2019-09-27 02:00:00 14.3 4 Este 18 Noroeste 0 -- -- 59
2019-09-27 01:00:00 16.2 11 Oeste 22 Oeste 0 -- -- 56
2019-09-27 00:00:00 14.7 0 Calma 13 Oeste 0 -- -- 59
2019-09-26 23:00:00 17.9 3 Norte 26 Oeste 0 -- -- 51
2019-09-26 22:00:00 19 13 Noroeste 21 Oeste 0 -- -- 48
2019-09-26 21:00:00 20.4 13 Oeste 21 Oeste 0 -- -- 46
2019-09-26 20:00:00 23.3 17 Oeste 28 Oeste 0 -- -- 33
2019-09-26 19:00:00 25.4 19 Oeste 29 Oeste 0 -- -- 27
2019-09-26 18:00:00 26.1 19 Sudoeste 28 Sudoeste 0 -- -- 26
2019-09-26 17:00:00 26.1 18 Oeste 30 Sudoeste 0 -- -- 27
2019-09-26 16:00:00 26 18 Oeste 29 Oeste 0 -- -- 25
2019-09-26 15:00:00 24.7 17 Oeste 30 Oeste 0 -- -- 29
2019-09-26 14:00:00 23 14 Sudoeste 30 Oeste 0 -- -- 33
2019-09-26 13:00:00 20.4 16 Oeste 23 Sudoeste 0 -- -- 46
2019-09-26 12:00:00 18.5 12 Sudoeste 20 Sudoeste 0 -- -- 51
2019-09-26 11:00:00 15.9 7 Oeste 16 Sudoeste 0 -- -- 63
2019-09-26 10:00:00 12.5 3 Sudeste 8 Sudeste 0 -- -- 79
2019-09-26 09:00:00 9.5 2 Noroeste 10 Noroeste 0 -- -- 88
2019-09-26 08:00:00 8.8 5 Oeste 8 Oeste 0 -- -- 90
2019-09-26 07:00:00 10.1 4 Noroeste 15 Oeste 0 -- -- 85
2019-09-26 06:00:00 10.2 5 Oeste 13 Sudoeste 0 -- -- 87
2019-09-26 05:00:00 10.8 5 Oeste 11 Oeste 0 -- -- 84
2019-09-26 04:00:00 11.7 4 Oeste 12 Oeste 0 -- -- 83
2019-09-26 03:00:00 12.5 8 Oeste 15 Sudoeste 0 -- -- 79
2019-09-26 02:00:00 13.6 10 Sudoeste 13 Sudoeste 0 -- -- 76
2019-09-26 01:00:00 13.1 0 Calma 6 Nordeste 0 -- -- 73
2019-09-26 00:00:00 15.1 2 Sudeste 21 Noroeste 0 -- -- 69
2019-09-25 23:00:00 15.9 10 Noroeste 24 Oeste 0 -- -- 67
2019-09-25 22:00:00 16.7 10 Noroeste 21 Oeste 0 -- -- 62
2019-09-25 21:00:00 17.9 13 Oeste 21 Oeste 0 -- -- 57
2019-09-25 20:00:00 20.3 14 Oeste 25 Oeste 0 -- -- 51
2019-09-25 19:00:00 21.7 17 Oeste 25 Sudoeste 0 -- -- 47
2019-09-25 18:00:00 22.6 15 Oeste 26 Oeste 0 -- -- 42
2019-09-25 17:00:00 22.6 13 Oeste 25 Sur 0 -- -- 41
2019-09-25 16:00:00 22.1 11 Sudoeste 26 Oeste 0 -- -- 40
2019-09-25 15:00:00 20.9 9 Sudoeste 22 Oeste 0 -- -- 43
2019-09-25 14:00:00 19.7 10 Sudoeste 30 Sudoeste 0 -- -- 46
2019-09-25 13:00:00 18 4 Nordeste 15 Este 0 -- -- 51
2019-09-25 12:00:00 16.7 6 Este 16 Este 0 -- -- 54
2019-09-25 11:00:00 14.8 3 Norte 8 Este 0 -- -- 62
2019-09-25 10:00:00 10.5 4 Este 7 Este 0 -- -- 81
2019-09-25 09:00:00 8.3 3 Oeste 8 Noroeste 0 -- -- 90
2019-09-25 08:00:00 7.4 5 Oeste 13 Nordeste 0 -- -- 89
2019-09-25 07:00:00 8.1 10 Oeste 14 Oeste 0 -- -- 87
2019-09-25 06:00:00 9.3 11 Noroeste 14 Oeste 0 -- -- 83
2019-09-25 05:00:00 9.2 3 Noroeste 16 Oeste 0 -- -- 84
2019-09-25 04:00:00 10.4 13 Oeste 17 Oeste 0 -- -- 81
2019-09-25 03:00:00 11.1 14 Oeste 18 Oeste 0 -- -- 80
2019-09-25 02:00:00 11.6 4 Noroeste 19 Oeste 0 -- -- 78
2019-09-25 01:00:00 13.1 12 Oeste 21 Oeste 0 -- -- 71
2019-09-25 00:00:00 14.4 15 Oeste 31 Oeste 0 -- -- 67
2019-09-24 23:00:00 14.9 18 Oeste 30 Oeste 0 -- -- 68
2019-09-24 22:00:00 15.8 14 Oeste 30 Oeste 0 -- -- 64
2019-09-24 21:00:00 17.3 16 Oeste 33 Oeste 0 -- -- 60
2019-09-24 20:00:00 19.4 27 Oeste 40 Oeste 0 -- -- 52
2019-09-24 19:00:00 21.5 31 Oeste 48 Oeste 0 -- -- 47
2019-09-24 18:00:00 22 33 Oeste 48 Sudoeste 0 -- -- 48
2019-09-24 17:00:00 22.5 31 Oeste 56 Oeste 0 -- -- 50
2019-09-24 16:00:00 22.7 37 Oeste 54 Oeste 0 -- -- 50
2019-09-24 15:00:00 20.6 24 Oeste 36 Oeste 0 -- -- 64
2019-09-24 14:00:00 18.5 23 Sudoeste 35 Sudoeste 0 -- -- 73
2019-09-24 13:00:00 18 25 Sudoeste 36 Oeste 0 -- -- 74
2019-09-24 12:00:00 16.5 22 Sudoeste 32 Sudoeste 0 -- -- 80
2019-09-24 11:00:00 15.9 26 Sudoeste 33 Sudoeste 0 -- -- 77
2019-09-24 10:00:00 14.5 23 Sudoeste 36 Sudoeste 0 -- -- 81
2019-09-24 09:00:00 13.3 16 Sudoeste 28 Sudoeste 0 -- -- 84
2019-09-24 08:00:00 12.6 13 Sudoeste 29 Sudoeste 0 -- -- 85
2019-09-24 07:00:00 12.2 21 Sudoeste 29 Sudoeste 0 -- -- 87
2019-09-24 06:00:00 12.6 12 Sudoeste 27 Oeste 0 -- -- 87
2019-09-24 05:00:00 13.4 19 Oeste 36 Oeste 0 -- -- 85
2019-09-24 04:00:00 12.9 17 Sudoeste 28 Sudoeste 0 -- -- 86
2019-09-24 03:00:00 13.5 17 Sudoeste 26 Oeste 0 -- -- 82
2019-09-24 02:00:00 13.9 17 Sudoeste 21 Sudoeste 0 -- -- 78
2019-09-24 01:00:00 14 11 Sudoeste 18 Sudoeste 0 -- -- 76
2019-09-24 00:00:00 14.5 12 Oeste 14 Oeste 0 -- -- 72
2019-09-23 23:00:00 14.8 8 Oeste 14 Oeste 0 -- -- 68
2019-09-23 22:00:00 16 0 Calma 9 Sudoeste 0 -- -- 62
2019-09-23 21:00:00 18.3 6 Oeste 26 Oeste 0 -- -- 55
2019-09-23 20:00:00 20.4 17 Sudoeste 28 Oeste 0 -- -- 49
2019-09-23 19:00:00 21.5 19 Sudoeste 31 Oeste 0 -- -- 44
2019-09-23 18:00:00 22.2 22 Sudoeste 35 Oeste 0 -- -- 43
2019-09-23 17:00:00 22.1 22 Oeste 34 Oeste 0 -- -- 44
2019-09-23 16:00:00 20.6 19 Oeste 29 Oeste 0 -- -- 47
2019-09-23 15:00:00 20.1 21 Oeste 31 Oeste 0 -- -- 47
2019-09-23 14:00:00 18.8 15 Sudoeste 29 Sudoeste 0 -- -- 53
2019-09-23 13:00:00 17.2 19 Sudoeste 28 Sudoeste 0 -- -- 59
2019-09-23 12:00:00 15.6 15 Sudoeste 21 Oeste 0 -- -- 68
2019-09-23 11:00:00 13.1 12 Sudoeste 22 Sudoeste 0 -- -- 80
2019-09-23 10:00:00 11 11 Sudoeste 15 Sudoeste 0 -- -- 89
2019-09-23 09:00:00 9.9 7 Sur 17 Sudoeste 0 -- -- 90
2019-09-23 08:00:00 9.4 8 Sudoeste 13 Sudoeste 0 -- -- 93
2019-09-23 07:00:00 8.5 7 Sudoeste 10 Sudoeste 0 -- -- 91
2019-09-23 06:00:00 8.6 5 Noroeste 9 Norte 0 -- -- 90
2019-09-23 05:00:00 10 12 Oeste 15 Oeste 0 -- -- 87
2019-09-23 04:00:00 10 9 Sudoeste 13 Oeste 0 -- -- 87
2019-09-23 03:00:00 10.8 9 Oeste 15 Oeste 0 -- -- 83
2019-09-23 02:00:00 10.6 8 Sudoeste 13 Sudoeste 0 -- -- 83
2019-09-23 01:00:00 12.1 3 Noroeste 17 Noroeste 0 -- -- 76
2019-09-23 00:00:00 12.9 7 Oeste 20 Noroeste 0 -- -- 72
2019-09-22 23:00:00 12.6 9 Noroeste 14 Noroeste 0 -- -- 72
2019-09-22 22:00:00 14.3 7 Noroeste 26 Oeste 0 -- -- 65
2019-09-22 21:00:00 15.8 18 Oeste 31 Oeste 0 -- -- 60
2019-09-22 20:00:00 17.6 23 Oeste 37 Sudoeste 0 -- -- 52
2019-09-22 19:00:00 19.4 27 Oeste 36 Oeste 0 -- -- 43
2019-09-22 18:00:00 20 21 Oeste 37 Oeste 0 -- -- 40
2019-09-22 17:00:00 20 24 Oeste 40 Oeste 0 -- -- 38
2019-09-22 16:00:00 19.5 24 Oeste 34 Sudoeste 0 -- -- 42
2019-09-22 15:00:00 19.3 27 Oeste 38 Oeste 0 -- -- 44
2019-09-22 14:00:00 18 22 Oeste 36 Oeste 0 -- -- 53
2019-09-22 13:00:00 15.8 24 Oeste 34 Oeste 0 -- -- 63
2019-09-22 12:00:00 15.4 21 Oeste 31 Oeste 0 -- -- 71
2019-09-22 11:00:00 14 17 Sudoeste 26 Sudoeste 0 -- -- 85
2019-09-22 10:00:00 12.4 15 Sudoeste 21 Sudoeste 0 -- -- 90
2019-09-22 09:00:00 11.6 6 Oeste 27 Oeste 0 -- -- 92
2019-09-22 08:00:00 11.4 18 Oeste 28 Sudoeste 0 -- -- 92
2019-09-22 07:00:00 11.4 17 Sudoeste 28 Sudoeste 0 -- -- 92
2019-09-22 06:00:00 11.5 18 Sudoeste 27 Sudoeste 0 -- -- 92
2019-09-22 05:00:00 11.6 16 Oeste 22 Oeste 0 -- -- 91
2019-09-22 04:00:00 11.6 17 Oeste 27 Oeste 0 -- -- 90
2019-09-22 03:00:00 12 12 Oeste 24 Oeste 0 -- -- 90
2019-09-22 02:00:00 12.3 12 Oeste 26 Oeste 0 -- -- 90
2019-09-22 01:00:00 12.5 10 Oeste 32 Oeste 0 -- -- 90
2019-09-22 00:00:00 13.5 28 Oeste 48 Sudoeste 0.2 -- -- 89
2019-09-21 23:00:00 16.2 30 Sudoeste 45 Sudoeste 0 -- -- 89
2019-09-21 22:00:00 16.1 18 Sudoeste 31 Sudoeste 0.8 -- -- 91
2019-09-21 21:00:00 16.7 18 Sudoeste 33 Sur 0.2 -- -- 86
2019-09-21 20:00:00 16.8 22 Sudoeste 45 Sudoeste 0.2 -- -- 85
2019-09-21 19:00:00 18.2 30 Sudoeste 46 Sudoeste 0 -- -- 76
2019-09-21 18:00:00 18.3 21 Sudoeste 47 Sudoeste 0 -- -- 76
2019-09-21 17:00:00 19.8 18 Sudoeste 36 Sudoeste 0 -- -- 69
2019-09-21 16:00:00 18.9 16 Sudoeste 26 Sudoeste 0 -- -- 74
2019-09-21 15:00:00 17.3 18 Sur 36 Sur 0 -- -- 84
2019-09-21 14:00:00 16.8 18 Sur 31 Sudoeste 0.2 -- -- 88
2019-09-21 13:00:00 17 18 Sudoeste 35 Sur 0 -- -- 82
2019-09-21 12:00:00 15.9 14 Sur 25 Sur 0 -- -- 87
2019-09-21 11:00:00 15.7 12 Sur 19 Sudoeste 0.2 -- -- 84
2019-09-21 10:00:00 16.5 17 Sur 26 Sur 0 -- -- 77
2019-09-21 09:00:00 16.3 9 Sur 18 Sur 0 -- -- 73
2019-09-21 08:00:00 16.2 10 Sur 18 Sudoeste 0 -- -- 75
2019-09-21 07:00:00 16.4 13 Sudoeste 26 Sur 0 -- -- 74
2019-09-21 06:00:00 16.3 13 Sudoeste 23 Sudoeste 0 -- -- 73
2019-09-21 05:00:00 15.5 12 Sudoeste 22 Sudoeste 0 -- -- 74
2019-09-21 04:00:00 16.6 14 Sudoeste 22 Sudoeste 0 -- -- 68
2019-09-21 03:00:00 17.3 15 Sudoeste 25 Sudoeste 0 -- -- 66
2019-09-21 02:00:00 17.6 16 Sudoeste 21 Sudoeste 0 -- -- 66
2019-09-21 01:00:00 17.2 10 Sudoeste 16 Sudoeste 0 -- -- 63
2019-09-21 00:00:00 18.6 11 Sudoeste 19 Sudoeste 0 -- -- 57
2019-09-20 23:00:00 20.5 13 Sudoeste 24 Sudoeste 0 -- -- 50
2019-09-20 22:00:00 21.4 14 Sudoeste 22 Sudoeste 0 -- -- 50
2019-09-20 21:00:00 22.1 10 Sudoeste 24 Sudoeste 0 -- -- 48
2019-09-20 20:00:00 23.6 16 Sudoeste 28 Sudoeste 0 -- -- 45
2019-09-20 19:00:00 24.8 19 Sudoeste 45 Sudoeste 0 -- -- 40
2019-09-20 18:00:00 25.6 25 Sudoeste 41 Sur 0 -- -- 37
2019-09-20 17:00:00 26.8 19 Sudoeste 36 Sur 0 -- -- 33
2019-09-20 16:00:00 26.7 16 Sudoeste 31 Sudoeste 0 -- -- 36
2019-09-20 15:00:00 26.2 15 Sur 28 Sudoeste 0 -- -- 37
2019-09-20 14:00:00 24.5 16 Sudoeste 26 Sudoeste 0 -- -- 45
2019-09-20 13:00:00 24.3 10 Sudoeste 24 Sudoeste 0 -- -- 46
2019-09-20 12:00:00 21.2 4 Nordeste 15 Este 0 -- -- 60
2019-09-20 11:00:00 19.3 7 Nordeste 14 Nordeste 0 -- -- 68
2019-09-20 10:00:00 17.1 7 Nordeste 10 Norte 0 -- -- 76
2019-09-20 09:00:00 15.4 6 Noroeste 10 Noroeste 0 -- -- 82
2019-09-20 08:00:00 14.3 6 Noroeste 10 Oeste 0 -- -- 85
2019-09-20 07:00:00 14 10 Noroeste 13 Noroeste 0 -- -- 84
2019-09-20 06:00:00 14.1 10 Noroeste 12 Noroeste 0 -- -- 82
2019-09-20 05:00:00 14.8 8 Noroeste 12 Oeste 0 -- -- 76
2019-09-20 04:00:00 15.1 10 Noroeste 14 Noroeste 0 -- -- 74
2019-09-20 03:00:00 15.1 8 Noroeste 14 Noroeste 0 -- -- 72
2019-09-20 02:00:00 15.6 11 Oeste 13 Oeste 0 -- -- 70
2019-09-20 01:00:00 16.4 8 Noroeste 15 Oeste 0 -- -- 66
2019-09-20 00:00:00 16.1 9 Oeste 12 Oeste 0 -- -- 68